Time;durP1;ratioP1;P1;durP2;ratioP2;P2;SDS_P1;SDS_P2;PMS_P1;PMS_P2;Temp;Humidity;BMP_temperature;BMP_pressure;BME280_temperature;BME280_humidity;BME280_pressure;Samples;Min_cycle;Max_cycle;Signal;HPM_P1;HPM_P2
2022/08/12 00:44:49;;;;;;;5.53;3.95;;;24.00;92.40;;;;;;5013702;28;20231;-80
2022/08/12 00:47:17;;;;;;;4.40;3.63;;;24.10;92.30;;;;;;5012128;28;20172;-79
2022/08/12 00:49:48;;;;;;;12.77;4.18;;;23.90;92.40;;;;;;5012111;28;20216;-79
2022/08/12 00:52:15;;;;;;;9.68;3.83;;;23.90;92.50;;;;;;5013086;28;20210;-79
2022/08/12 00:54:44;;;;;;;8.40;3.60;;;23.90;92.60;;;;;;5012879;28;20192;-81
2022/08/12 00:57:13;;;;;;;9.35;3.95;;;23.90;92.50;;;;;;5012832;28;20168;-81
2022/08/12 00:59:48;;;;;;;18.63;4.05;;;23.90;92.70;;;;;;5012683;28;20168;-81
2022/08/12 01:02:23;;;;;;;3.72;3.42;;;23.80;92.80;;;;;;5012806;28;20680;-81
2022/08/12 01:13:14;;;;;;;8.07;3.33;;;23.60;93.40;;;;;;5013535;28;20187;-81
2022/08/12 01:15:40;;;;;;;7.95;3.67;;;23.70;93.30;;;;;;5012908;28;20164;-81
2022/08/12 01:18:07;;;;;;;4.57;3.45;;;23.60;93.50;;;;;;5011328;28;20192;-79
2022/08/12 01:20:48;;;;;;;12.93;3.90;;;23.60;93.50;;;;;;5012659;28;20275;-81
2022/08/12 01:23:45;;;;;;;4.65;3.60;;;23.60;94.20;;;;;;5012600;28;20717;-81
2022/08/12 01:26:25;;;;;;;4.85;3.38;;;23.50;93.90;;;;;;5012904;28;20175;-82
2022/08/12 01:28:58;;;;;;;4.18;3.78;;;23.50;94.20;;;;;;5011293;28;20224;-81
2022/08/12 01:31:25;;;;;;;6.25;3.22;;;23.30;94.40;;;;;;5012790;28;20216;-79
2022/08/12 01:34:07;;;;;;;13.93;4.00;;;23.20;94.40;;;;;;5011355;28;20165;-79
2022/08/12 01:36:45;;;;;;;4.53;3.92;;;23.10;94.40;;;;;;5012356;28;20600;-80
2022/08/12 01:39:14;;;;;;;13.60;3.90;;;23.10;94.40;;;;;;5011163;28;20187;-79
2022/08/12 01:41:46;;;;;;;11.35;3.35;;;23.10;94.50;;;;;;5010970;28;20247;-79
2022/08/12 01:44:13;;;;;;;10.73;3.42;;;23.10;94.50;;;;;;5012283;28;20256;-79
2022/08/12 01:46:57;;;;;;;7.60;3.78;;;23.10;94.50;;;;;;5010878;28;20176;-81
2022/08/12 01:49:32;;;;;;;5.50;3.47;;;23.00;94.50;;;;;;5010675;28;20676;-81
2022/08/12 01:52:04;;;;;;;6.18;3.83;;;22.90;94.60;;;;;;5012286;28;20658;-81
2022/08/12 01:54:38;;;;;;;7.97;3.58;;;22.90;94.50;;;;;;5013656;28;20176;-80
2022/08/12 01:57:25;;;;;;;6.85;3.55;;;22.90;94.60;;;;;;5016215;28;20243;-80
2022/08/12 02:00:00;;;;;;;9.13;3.88;;;22.90;94.60;;;;;;5014770;28;20286;-81
2022/08/12 02:02:28;;;;;;;13.07;3.50;;;23.00;94.50;;;;;;5016349;28;20160;-81
2022/08/12 02:11:28;;;;;;;10.18;3.30;;;22.70;94.90;;;;;;5015907;28;20218;-81
2022/08/12 02:14:19;;;;;;;10.32;3.05;;;22.80;95.00;;;;;;5015932;28;20637;-82
2022/08/12 02:16:47;;;;;;;5.95;3.58;;;22.80;94.90;;;;;;5015679;28;20169;-81
2022/08/12 02:19:40;;;;;;;6.35;4.03;;;22.70;95.00;;;;;;5015888;28;20165;-81
2022/08/12 02:22:40;;;;;;;7.85;3.92;;;22.50;95.40;;;;;;5015629;28;20567;-81
2022/08/12 02:25:08;;;;;;;7.47;4.43;;;22.50;95.50;;;;;;5011588;28;20242;-80
2022/08/12 02:27:39;;;;;;;14.63;3.20;;;22.50;95.50;;;;;;5014097;28;20168;-81
2022/08/12 02:30:08;;;;;;;5.38;3.80;;;22.40;95.60;;;;;;5014066;28;20672;-81
2022/08/12 02:32:39;;;;;;;4.07;3.75;;;22.40;95.80;;;;;;5015611;28;20169;-81
2022/08/12 02:35:10;;;;;;;4.95;3.72;;;22.30;95.80;;;;;;5015170;28;20656;-81
2022/08/12 02:37:38;;;;;;;8.45;4.20;;;22.20;95.90;;;;;;5014204;28;20274;-81
2022/08/12 02:40:06;;;;;;;3.92;3.60;;;22.30;95.90;;;;;;5015342;28;20188;-82
2022/08/12 02:42:33;;;;;;;13.35;3.90;;;22.20;96.10;;;;;;5013902;28;20515;-81
2022/08/12 02:45:05;;;;;;;8.27;4.13;;;22.20;96.00;;;;;;5014743;28;20168;-81
2022/08/12 02:47:39;;;;;;;4.75;4.05;;;22.30;95.90;;;;;;5015139;28;20183;-79
2022/08/12 02:50:06;;;;;;;5.40;3.40;;;22.10;96.10;;;;;;5015198;28;20546;-79
2022/08/12 02:52:33;;;;;;;18.50;4.03;;;22.00;96.60;;;;;;5015208;28;20759;-79
2022/08/12 02:55:08;;;;;;;3.40;2.88;;;21.80;97.00;;;;;;5015113;28;20203;-79
2022/08/12 02:57:34;;;;;;;11.48;3.65;;;21.90;96.80;;;;;;5015090;28;20196;-80
2022/08/12 03:00:02;;;;;;;7.63;4.07;;;22.00;96.60;;;;;;5014947;28;20192;-79
2022/08/12 03:02:30;;;;;;;5.30;4.35;;;22.00;96.60;;;;;;5015280;28;20172;-80
2022/08/12 03:04:57;;;;;;;4.15;3.75;;;21.80;96.90;;;;;;5013616;28;20161;-80
2022/08/12 03:07:23;;;;;;;10.75;4.15;;;21.80;97.10;;;;;;5014820;28;20172;-79
2022/08/12 03:10:10;;;;;;;10.63;4.15;;;21.80;97.10;;;;;;5014342;28;20551;-80
2022/08/12 03:12:39;;;;;;;10.23;4.88;;;21.70;97.40;;;;;;5014595;28;20203;-82
2022/08/12 03:15:10;;;;;;;7.57;4.72;;;21.70;97.40;;;;;;5014256;28;20255;-80
2022/08/12 03:17:59;;;;;;;9.80;3.75;;;21.70;97.30;;;;;;5014301;28;20189;-79
2022/08/12 03:20:25;;;;;;;9.68;3.75;;;21.80;97.30;;;;;;5012961;28;20279;-80
2022/08/12 03:22:51;;;;;;;6.72;4.20;;;21.90;97.30;;;;;;5014386;28;20275;-80
2022/08/12 03:25:26;;;;;;;12.18;4.13;;;21.80;97.40;;;;;;5014503;28;20169;-80
2022/08/12 03:27:56;;;;;;;7.82;4.38;;;21.80;97.50;;;;;;5014842;28;20191;-81
2022/08/12 03:30:28;;;;;;;6.28;3.83;;;21.70;97.60;;;;;;5014287;28;20208;-79
2022/08/12 03:32:57;;;;;;;8.02;4.50;;;21.50;98.00;;;;;;5013037;28;20169;-81
2022/08/12 03:35:26;;;;;;;16.15;4.60;;;21.60;98.00;;;;;;5014058;28;20180;-79
2022/08/12 03:38:00;;;;;;;9.27;4.43;;;21.70;97.90;;;;;;5012913;28;20171;-81
2022/08/12 04:00:27;;;;;;;10.95;4.45;;;21.10;99.40;;;;;;5013778;28;20557;-81
2022/08/12 04:02:59;;;;;;;4.72;4.32;;;21.10;99.50;;;;;;5012339;28;20175;-81
2022/08/12 04:05:25;;;;;;;6.45;5.10;;;21.20;99.60;;;;;;5013763;28;20200;-80
2022/08/12 04:07:52;;;;;;;10.45;5.25;;;21.10;99.80;;;;;;5013557;28;20251;-80
2022/08/12 04:10:18;;;;;;;19.10;5.40;;;21.20;99.70;;;;;;5013138;28;20259;-81
2022/08/12 04:15:39;;;;;;;10.38;5.68;;;21.20;99.80;;;;;;5013551;28;20226;-81
2022/08/12 04:18:05;;;;;;;4.78;4.38;;;21.10;99.90;;;;;;5012107;28;20164;-80
2022/08/12 04:20:31;;;;;;;12.80;4.60;;;21.10;99.90;;;;;;5013362;28;20199;-81
2022/08/12 04:22:57;;;;;;;7.38;4.80;;;21.10;99.90;;;;;;5012019;28;20180;-80
2022/08/12 04:25:25;;;;;;;9.68;6.03;;;21.20;99.90;;;;;;5013316;28;20370;-81
2022/08/12 04:27:53;;;;;;;4.80;4.30;;;21.20;99.90;;;;;;5012027;28;20168;-80
2022/08/12 04:30:19;;;;;;;7.03;5.28;;;21.10;99.90;;;;;;5011745;28;20220;-80
2022/08/12 04:32:46;;;;;;;8.95;4.65;;;20.90;99.90;;;;;;5013253;28;20164;-81
2022/08/12 04:35:12;;;;;;;10.70;4.47;;;21.00;99.90;;;;;;5013973;28;20176;-80
2022/08/12 04:37:38;;;;;;;16.17;5.88;;;21.10;99.90;;;;;;5013223;28;20164;-82
2022/08/12 04:40:04;;;;;;;4.45;4.05;;;21.10;99.90;;;;;;5011642;28;20188;-80
2022/08/12 04:42:31;;;;;;;8.93;4.40;;;21.20;99.90;;;;;;5012898;28;20172;-79
2022/08/12 04:44:57;;;;;;;7.22;4.78;;;21.20;99.90;;;;;;5011385;28;20196;-78
2022/08/12 04:47:23;;;;;;;11.02;5.28;;;21.20;99.90;;;;;;5012797;28;20614;-80
2022/08/12 04:49:48;;;;;;;18.73;5.72;;;21.10;99.90;;;;;;5012909;28;20211;-79
2022/08/12 04:52:14;;;;;;;6.90;5.22;;;21.10;99.90;;;;;;5011685;28;20171;-79
2022/08/12 04:54:42;;;;;;;18.88;5.35;;;21.00;99.90;;;;;;5011291;28;20633;-79
2022/08/12 04:57:08;;;;;;;17.35;5.47;;;20.80;99.90;;;;;;5012923;28;20319;-80
2022/08/12 04:59:35;;;;;;;11.05;4.80;;;20.90;99.90;;;;;;5011565;28;20717;-80
2022/08/12 05:02:00;;;;;;;7.50;5.13;;;21.00;99.90;;;;;;5011393;28;20157;-80
2022/08/12 05:04:27;;;;;;;8.95;5.45;;;21.00;99.90;;;;;;5011151;28;20177;-80
2022/08/12 05:06:53;;;;;;;10.13;4.82;;;21.00;99.90;;;;;;5012323;28;20164;-80
2022/08/12 05:09:19;;;;;;;11.20;5.32;;;21.10;99.90;;;;;;5012268;28;20604;-80
2022/08/12 05:11:51;;;;;;;7.93;5.97;;;21.10;99.90;;;;;;5011185;28;20239;-80
2022/08/12 05:14:16;;;;;;;11.63;5.57;;;21.10;99.90;;;;;;5012550;28;20164;-80
2022/08/12 05:16:43;;;;;;;14.85;5.60;;;21.20;99.90;;;;;;5011025;28;20172;-80
2022/08/12 05:19:08;;;;;;;11.57;6.20;;;21.20;99.90;;;;;;5012404;28;20566;-80
2022/08/12 05:21:34;;;;;;;12.25;6.18;;;21.20;99.90;;;;;;5011884;28;20184;-80
2022/08/12 05:24:00;;;;;;;20.35;6.18;;;21.30;99.90;;;;;;5012613;28;20196;-80
2022/08/12 05:26:27;;;;;;;16.10;5.78;;;21.20;99.90;;;;;;5011770;28;20164;-80
2022/08/12 05:28:53;;;;;;;13.73;5.72;;;21.20;99.90;;;;;;5014033;28;20207;-80
2022/08/12 05:31:19;;;;;;;17.58;5.40;;;21.40;99.90;;;;;;5016056;28;20211;-80
2022/08/12 05:33:46;;;;;;;6.05;5.53;;;21.40;99.90;;;;;;5016632;28;20171;-80
2022/08/12 05:36:13;;;;;;;6.95;4.75;;;21.40;99.90;;;;;;5015550;28;20175;-79
2022/08/12 05:38:56;;;;;;;11.65;5.88;;;21.50;99.90;;;;;;5016474;28;20164;-80
2022/08/12 05:41:23;;;;;;;24.75;6.53;;;21.50;99.90;;;;;;5016555;28;20206;-80
2022/08/12 05:43:54;;;;;;;17.85;6.85;;;21.60;99.90;;;;;;5016357;28;20177;-80
2022/08/12 05:46:22;;;;;;;8.95;6.60;;;21.90;99.90;;;;;;5016284;28;20248;-81
2022/08/12 05:48:48;;;;;;;15.88;6.28;;;22.00;99.90;;;;;;5016348;28;20605;-80
2022/08/12 05:51:14;;;;;;;15.07;7.28;;;21.80;99.90;;;;;;5015882;28;20305;-80
2022/08/12 05:53:40;;;;;;;18.48;6.63;;;21.70;99.90;;;;;;5015393;28;20628;-80
2022/08/12 05:56:18;;;;;;;11.18;7.38;;;21.70;99.90;;;;;;5015895;28;20215;-80
2022/08/12 05:58:44;;;;;;;23.88;7.57;;;21.70;99.90;;;;;;5016205;28;20164;-80
2022/08/12 06:01:10;;;;;;;9.98;7.18;;;21.60;99.90;;;;;;5016083;28;20247;-80
2022/08/12 06:03:35;;;;;;;8.13;7.28;;;21.80;99.90;;;;;;5015853;28;20635;-80
2022/08/12 06:06:01;;;;;;;24.88;6.88;;;21.80;99.90;;;;;;5015549;28;20502;-79
2022/08/12 06:08:27;;;;;;;13.73;6.28;;;21.70;99.90;;;;;;5015810;28;20164;-79
2022/08/12 06:10:54;;;;;;;23.15;6.38;;;21.80;99.90;;;;;;5015717;28;20251;-79
2022/08/12 06:13:20;;;;;;;14.60;6.13;;;21.70;99.90;;;;;;5015973;28;20260;-85
2022/08/12 06:15:45;;;;;;;19.77;6.95;;;21.70;99.90;;;;;;5014474;28;20263;-81
2022/08/12 06:18:12;;;;;;;10.85;6.38;;;21.90;99.90;;;;;;5015935;28;20532;-81
2022/08/12 06:20:38;;;;;;;15.15;6.85;;;22.10;99.90;;;;;;5016219;28;20192;-81
2022/08/12 06:23:04;;;;;;;33.10;7.55;;;22.30;99.90;;;;;;5014598;28;20717;-81
2022/08/12 06:25:29;;;;;;;20.10;6.80;;;22.30;99.90;;;;;;5015561;28;20180;-82
2022/08/12 06:28:00;;;;;;;12.85;7.22;;;22.30;99.90;;;;;;5014228;28;20173;-81
2022/08/12 06:30:27;;;;;;;12.02;6.18;;;22.30;99.90;;;;;;5015681;28;20200;-80
2022/08/12 06:32:53;;;;;;;22.55;7.75;;;22.30;99.90;;;;;;5015936;28;20161;-83
2022/08/12 06:35:19;;;;;;;11.13;6.80;;;22.30;99.90;;;;;;5015372;28;20510;-80
2022/08/12 06:37:50;;;;;;;13.13;6.30;;;22.50;99.90;;;;;;5015652;28;20167;-81
2022/08/12 06:42:46;;;;;;;10.02;6.00;;;22.50;99.90;;;;;;5014860;28;20192;-79
2022/08/12 06:43:05;;;;;;;13.77;6.72;;;22.80;99.90;;;;;;5015970;28;20181;-80
2022/08/12 06:45:32;;;;;;;8.18;6.50;;;22.70;99.90;;;;;;5015593;28;20224;-80
2022/08/12 06:48:05;;;;;;;26.30;6.78;;;22.80;99.90;;;;;;5015611;28;20168;-81
2022/08/12 06:50:31;;;;;;;9.68;6.22;;;22.90;99.90;;;;;;5014739;28;20212;-82
2022/08/12 06:52:56;;;;;;;31.55;6.88;;;23.10;99.90;;;;;;5013557;28;20234;-81
2022/08/12 06:55:24;;;;;;;17.08;5.72;;;23.30;99.90;;;;;;5014992;28;20233;-80
2022/08/12 06:58:00;;;;;;;42.65;6.68;;;23.50;99.90;;;;;;5014980;28;20161;-82
2022/08/12 07:00:29;;;;;;;17.45;5.45;;;23.60;99.90;;;;;;5013637;28;20242;-80
2022/08/12 07:02:56;;;;;;;20.95;6.13;;;23.90;99.90;;;;;;5013588;28;20168;-80
2022/08/12 07:05:24;;;;;;;22.25;5.68;;;24.00;99.90;;;;;;5014684;28;20541;-84
2022/08/12 07:08:11;;;;;;;15.20;5.13;;;23.80;99.90;;;;;;5014845;28;20187;-80
2022/08/12 07:10:53;;;;;;;30.48;5.80;;;23.90;99.90;;;;;;5014714;28;20200;-80
2022/08/12 07:13:19;;;;;;;8.38;5.45;;;23.80;99.90;;;;;;5015237;28;20172;-81
2022/08/12 07:15:45;;;;;;;8.55;5.38;;;23.80;99.90;;;;;;5014770;28;20171;-82
2022/08/12 07:18:18;;;;;;;15.73;5.43;;;24.00;99.90;;;;;;5013591;28;20707;-83
2022/08/12 07:20:49;;;;;;;10.77;4.72;;;24.10;99.90;;;;;;5013518;28;20664;-84
2022/08/12 07:23:16;;;;;;;7.03;4.88;;;24.10;99.90;;;;;;5014696;28;20184;-79
2022/08/12 07:25:42;;;;;;;40.70;6.07;;;24.10;99.90;;;;;;5014386;28;20646;-81
2022/08/12 07:28:18;;;;;;;19.80;5.70;;;24.60;99.90;;;;;;5014581;28;20168;-80
2022/08/12 07:30:47;;;;;;;7.40;5.03;;;25.50;99.20;;;;;;5014490;28;20192;-80
2022/08/12 07:33:15;;;;;;;22.73;5.50;;;26.00;98.60;;;;;;5014448;28;20173;-80
2022/08/12 07:35:44;;;;;;;24.33;5.25;;;26.40;98.10;;;;;;5012463;28;20581;-78
2022/08/12 07:38:24;;;;;;;33.30;5.00;;;26.70;97.30;;;;;;5015386;28;20715;-80
2022/08/12 07:41:10;;;;;;;15.38;4.40;;;26.60;97.00;;;;;;5011555;28;20196;-84
2022/08/12 07:43:39;;;;;;;26.25;6.00;;;26.20;97.20;;;;;;5031937;28;20717;-79
2022/08/12 07:46:07;;;;;;;13.75;4.72;;;26.30;97.20;;;;;;5033222;28;20183;-80
2022/08/12 07:48:42;;;;;;;13.88;4.68;;;26.20;97.00;;;;;;5007256;28;20661;-81
2022/08/12 07:51:08;;;;;;;29.83;5.32;;;26.30;97.00;;;;;;4993253;28;20216;-79
2022/08/12 07:53:35;;;;;;;10.55;5.03;;;26.10;97.00;;;;;;4993618;28;20220;-81
2022/08/12 07:56:03;;;;;;;23.65;4.78;;;26.10;97.00;;;;;;4994003;28;20181;-82
2022/08/12 07:58:30;;;;;;;30.23;5.35;;;26.20;97.10;;;;;;5002054;28;20182;-80
2022/08/12 08:00:56;;;;;;;6.47;5.10;;;26.00;97.00;;;;;;5012905;28;20188;-84
2022/08/12 08:03:24;;;;;;;11.75;5.15;;;26.10;97.00;;;;;;4995999;28;20640;-83
2022/08/12 08:05:51;;;;;;;31.55;5.43;;;26.00;96.90;;;;;;5020839;28;20180;-79
2022/08/12 08:08:19;;;;;;;13.20;4.35;;;26.10;97.20;;;;;;5023503;28;20176;-82
2022/08/12 08:10:46;;;;;;;6.30;5.20;;;26.10;97.00;;;;;;5016811;28;20261;-79
2022/08/12 08:13:12;;;;;;;20.40;5.90;;;26.30;96.50;;;;;;5009180;28;20179;-80
2022/08/12 08:15:39;;;;;;;11.40;5.00;;;26.40;96.70;;;;;;5018462;28;20181;-93
2022/08/12 08:18:08;;;;;;;17.38;5.07;;;26.50;96.30;;;;;;5022744;28;20632;-80
2022/08/12 08:20:40;;;;;;;17.88;5.78;;;26.60;96.30;;;;;;5032219;28;20192;-83
2022/08/12 08:23:15;;;;;;;20.05;4.88;;;26.80;96.40;;;;;;5018492;28;20637;-89
2022/08/12 08:25:42;;;;;;;14.27;4.63;;;26.90;96.30;;;;;;5019649;28;20164;-82
2022/08/12 08:28:09;;;;;;;17.08;4.70;;;26.90;96.20;;;;;;5007445;28;20173;-82
2022/08/12 08:30:39;;;;;;;18.23;5.35;;;27.00;96.10;;;;;;4993369;28;20247;-83
2022/08/12 08:33:08;;;;;;;22.08;3.88;;;27.20;96.10;;;;;;4996579;28;20742;-82
2022/08/12 08:35:35;;;;;;;23.05;4.07;;;27.20;95.30;;;;;;5011645;28;20176;-83
2022/08/12 08:38:12;;;;;;;15.07;3.90;;;27.40;95.30;;;;;;5010444;28;20188;-82
2022/08/12 08:43:25;;;;;;;9.63;3.25;;;27.50;94.40;;;;;;5032762;28;20186;-87
2022/08/12 08:45:51;;;;;;;11.70;3.65;;;27.60;93.90;;;;;;5022341;28;20168;-82
2022/08/12 08:48:17;;;;;;;9.45;3.78;;;27.70;94.30;;;;;;5005402;28;20173;-82
2022/08/12 08:50:43;;;;;;;12.55;3.33;;;27.60;93.40;;;;;;4998473;28;20566;-83
2022/08/12 08:53:09;;;;;;;7.80;3.63;;;27.60;93.40;;;;;;5012951;28;20176;-84
2022/08/12 08:55:35;;;;;;;17.83;3.78;;;27.70;93.70;;;;;;5011629;28;20179;-84
2022/08/12 08:58:01;;;;;;;12.57;3.53;;;27.90;93.90;;;;;;5012557;28;20180;-83
2022/08/12 09:00:29;;;;;;;12.70;3.42;;;28.00;93.30;;;;;;5012158;28;20195;-84
2022/08/12 09:02:54;;;;;;;10.80;3.13;;;28.10;93.10;;;;;;5012558;28;20176;-83
2022/08/12 09:05:20;;;;;;;8.73;3.00;;;28.20;92.80;;;;;;5012688;28;20173;-84
2022/08/12 09:07:48;;;;;;;7.57;3.30;;;28.20;92.30;;;;;;5012533;28;20189;-83
2022/08/12 09:10:18;;;;;;;15.73;3.67;;;28.30;92.40;;;;;;5012935;28;20208;-83
2022/08/12 09:15:34;;;;;;;13.63;3.13;;;28.70;92.60;;;;;;5014330;28;20187;-83
2022/08/12 09:18:06;;;;;;;17.85;3.38;;;28.70;92.00;;;;;;5010803;28;20617;-85
2022/08/12 09:20:33;;;;;;;7.57;3.33;;;28.80;91.70;;;;;;5013173;28;20291;-82
2022/08/12 09:23:01;;;;;;;5.18;2.92;;;28.80;91.60;;;;;;5012776;28;20211;-83
2022/08/12 09:25:30;;;;;;;5.88;3.15;;;28.80;91.20;;;;;;5011799;28;20507;-83
2022/08/12 09:27:57;;;;;;;16.35;3.05;;;28.70;91.40;;;;;;5022066;28;20628;-82
2022/08/12 09:30:23;;;;;;;18.42;2.88;;;28.80;90.80;;;;;;5022549;28;20231;-82
2022/08/12 09:32:49;;;;;;;7.15;2.85;;;28.70;90.90;;;;;;5010438;28;20233;-83
2022/08/12 09:35:22;;;;;;;9.82;2.78;;;28.90;90.80;;;;;;5009893;28;20185;-83
2022/08/12 09:37:51;;;;;;;2.63;2.42;;;29.10;90.80;;;;;;5012048;28;20192;-89
2022/08/12 09:40:18;;;;;;;6.95;2.80;;;29.20;90.20;;;;;;5012118;28;20611;-83
2022/08/12 09:45:30;;;;;;;6.88;2.85;;;29.40;89.60;;;;;;5013951;28;20936;-81
2022/08/12 09:48:02;;;;;;;8.23;2.45;;;29.70;89.90;;;;;;5011921;28;20591;-82
2022/08/12 09:50:28;;;;;;;5.82;2.30;;;29.70;89.60;;;;;;5009767;28;20204;-82
2022/08/12 09:53:03;;;;;;;16.65;2.58;;;29.60;88.10;;;;;;5010638;28;20164;-82
2022/08/12 09:55:29;;;;;;;26.63;3.60;;;29.60;87.90;;;;;;5012312;28;20242;-82
2022/08/12 09:57:54;;;;;;;10.02;2.70;;;29.70;88.90;;;;;;5012285;28;20723;-81
2022/08/12 10:00:24;;;;;;;6.10;2.45;;;29.80;89.10;;;;;;5011849;28;20196;-81
2022/08/12 10:03:09;;;;;;;11.48;2.85;;;30.10;87.50;;;;;;5010566;28;20226;-80
2022/08/12 10:05:43;;;;;;;11.32;2.50;;;30.20;87.50;;;;;;5017897;28;20179;-84
2022/08/12 10:08:12;;;;;;;15.98;2.38;;;30.30;85.60;;;;;;5013624;28;20707;-81
2022/08/12 10:13:43;;;;;;;8.60;2.50;;;30.10;85.30;;;;;;5012095;28;20179;-86
2022/08/12 10:16:12;;;;;;;5.20;2.00;;;30.00;85.00;;;;;;5017191;28;20175;-82
2022/08/12 10:18:43;;;;;;;3.22;2.33;;;29.90;83.90;;;;;;5035193;28;20532;-79
2022/08/12 10:21:17;;;;;;;12.48;2.15;;;30.00;83.50;;;;;;5034962;28;20721;-81
2022/08/12 10:23:48;;;;;;;7.57;2.15;;;30.20;83.00;;;;;;5035195;28;20206;-79
2022/08/12 10:31:45;;;;;;;13.13;2.08;;;30.40;82.10;;;;;;5034784;28;20253;-81
2022/08/12 10:34:12;;;;;;;5.80;2.75;;;30.50;81.60;;;;;;5033111;28;20171;-81
2022/08/12 10:36:39;;;;;;;2.75;2.03;;;30.50;81.10;;;;;;5034148;28;20163;-79
2022/08/12 10:39:07;;;;;;;11.50;2.50;;;30.60;81.50;;;;;;5034545;28;20167;-79
2022/08/12 10:44:17;;;;;;;6.00;2.45;;;30.70;81.40;;;;;;5034816;28;20175;-81
2022/08/12 10:46:45;;;;;;;6.25;2.53;;;30.50;81.60;;;;;;5035122;28;20164;-80
2022/08/12 10:49:11;;;;;;;8.80;2.00;;;30.60;80.90;;;;;;5035404;28;20200;-83
2022/08/12 10:51:40;;;;;;;9.77;2.60;;;30.70;81.80;;;;;;5033914;28;20198;-81
2022/08/12 10:54:06;;;;;;;9.25;2.47;;;30.80;79.70;;;;;;5036764;28;20172;-80
2022/08/12 10:56:34;;;;;;;7.93;1.88;;;30.80;79.80;;;;;;5058993;28;20194;-81
2022/08/12 10:58:59;;;;;;;11.00;2.33;;;30.80;80.00;;;;;;5058478;28;20155;-82
2022/08/12 11:01:26;;;;;;;11.25;2.83;;;31.00;79.20;;;;;;5059282;28;20183;-81
2022/08/12 11:03:52;;;;;;;24.77;2.75;;;30.90;78.40;;;;;;5058996;28;20227;-82
2022/08/12 11:06:20;;;;;;;15.30;2.63;;;30.90;77.80;;;;;;5059182;28;20164;-82
2022/08/12 11:08:46;;;;;;;17.67;2.67;;;30.90;77.50;;;;;;5054075;28;20282;-81
2022/08/12 11:11:16;;;;;;;11.20;2.90;;;30.60;77.40;;;;;;5042361;28;20194;-79
2022/08/12 11:13:45;;;;;;;4.00;2.08;;;30.50;77.70;;;;;;5037084;28;20234;-80
2022/08/12 11:16:12;;;;;;;4.43;2.00;;;30.60;76.80;;;;;;5040622;28;20159;-80
2022/08/12 11:18:38;;;;;;;6.38;1.88;;;30.70;76.70;;;;;;5048276;28;20160;-80
2022/08/12 11:21:04;;;;;;;4.82;1.70;;;30.70;76.80;;;;;;5045537;28;20191;-81
2022/08/12 11:23:30;;;;;;;7.22;2.30;;;30.90;76.10;;;;;;5035333;28;20284;-80
2022/08/12 11:25:55;;;;;;;11.75;2.10;;;30.90;75.20;;;;;;5032395;28;20167;-80
2022/08/12 11:28:21;;;;;;;24.10;1.98;;;30.90;75.40;;;;;;5034180;28;20163;-81
2022/08/12 11:30:47;;;;;;;11.13;2.17;;;30.90;74.60;;;;;;5034005;28;20199;-80
2022/08/12 11:33:12;;;;;;;4.82;2.05;;;30.80;74.50;;;;;;5032433;28;20261;-80
2022/08/12 11:35:42;;;;;;;21.08;2.15;;;30.90;75.20;;;;;;5032725;28;20171;-81
2022/08/12 11:38:09;;;;;;;1.88;1.70;;;30.90;73.40;;;;;;5034143;28;20168;-81
2022/08/12 11:40:35;;;;;;;13.88;1.88;;;30.80;73.20;;;;;;5033356;28;20189;-80
2022/08/12 11:43:00;;;;;;;6.40;1.60;;;31.00;73.30;;;;;;5034003;28;20171;-80
2022/08/12 11:45:27;;;;;;;9.75;2.10;;;31.20;73.30;;;;;;5033410;28;20164;-80
2022/08/12 11:47:54;;;;;;;7.85;1.88;;;31.30;73.20;;;;;;5034283;28;20270;-80
2022/08/12 11:50:21;;;;;;;9.63;1.80;;;31.20;73.20;;;;;;5033644;28;20210;-81
2022/08/12 11:52:48;;;;;;;5.45;1.67;;;31.10;73.20;;;;;;5033614;28;20227;-80
2022/08/12 11:55:13;;;;;;;13.98;1.67;;;31.10;73.90;;;;;;5031890;28;20646;-82
2022/08/12 11:57:52;;;;;;;18.77;2.50;;;31.20;73.80;;;;;;5031444;28;20187;-80
2022/08/12 12:00:19;;;;;;;14.73;1.98;;;31.30;73.10;;;;;;4998385;28;20283;-80
2022/08/12 12:02:45;;;;;;;9.23;1.95;;;31.30;72.40;;;;;;5015531;28;20168;-80
2022/08/12 12:05:11;;;;;;;3.80;1.70;;;31.30;73.00;;;;;;5015055;28;20527;-79
2022/08/12 12:07:41;;;;;;;6.93;2.22;;;31.20;72.30;;;;;;5014146;28;20164;-80
2022/08/12 12:10:07;;;;;;;3.40;2.10;;;31.30;72.30;;;;;;5013785;28;20220;-80
2022/08/12 12:12:34;;;;;;;1.95;1.85;;;31.30;72.60;;;;;;5012787;28;20164;-81
2022/08/12 12:14:59;;;;;;;3.35;1.80;;;31.20;72.70;;;;;;5014503;28;20235;-80
2022/08/12 12:17:25;;;;;;;4.18;1.60;;;31.40;74.00;;;;;;5014134;28;20176;-80
2022/08/12 12:19:52;;;;;;;6.38;2.17;;;31.50;71.20;;;;;;5014317;28;20191;-81
2022/08/12 12:22:19;;;;;;;10.20;2.25;;;31.40;71.10;;;;;;5012387;28;20683;-81
2022/08/12 12:24:46;;;;;;;5.60;2.03;;;31.20;71.80;;;;;;5012665;28;20542;-80
2022/08/12 12:27:12;;;;;;;9.57;1.88;;;31.20;72.30;;;;;;5013634;28;20255;-81
2022/08/12 12:29:38;;;;;;;1.50;1.40;;;31.30;73.20;;;;;;5013658;28;20282;-80
2022/08/12 12:32:04;;;;;;;5.22;2.10;;;31.30;73.10;;;;;;5012564;28;20538;-81
2022/08/12 12:34:29;;;;;;;3.03;1.58;;;31.30;73.30;;;;;;5012260;28;20183;-81
2022/08/12 12:36:55;;;;;;;2.55;1.42;;;31.30;71.30;;;;;;5013241;28;20165;-80
2022/08/12 12:39:21;;;;;;;12.80;2.50;;;31.20;70.10;;;;;;5013681;28;20203;-80
2022/08/12 12:41:46;;;;;;;6.75;1.50;;;31.20;70.80;;;;;;5013689;28;20192;-80
2022/08/12 12:44:12;;;;;;;3.90;2.00;;;31.00;69.80;;;;;;5013990;28;20175;-80
2022/08/12 12:46:38;;;;;;;3.47;1.80;;;31.00;71.10;;;;;;5013282;28;20172;-80
2022/08/12 12:49:03;;;;;;;11.10;1.80;;;31.20;72.10;;;;;;5013151;28;20571;-80
2022/08/12 12:51:29;;;;;;;12.45;2.05;;;31.40;71.80;;;;;;5013152;28;20267;-80
2022/08/12 12:53:55;;;;;;;9.18;1.90;;;31.50;71.50;;;;;;5013205;28;20164;-80
2022/08/12 12:56:23;;;;;;;4.90;1.80;;;31.70;70.80;;;;;;5011774;28;20251;-80
2022/08/12 12:58:53;;;;;;;4.90;2.20;;;31.70;71.40;;;;;;5012165;28;20625;-80
2022/08/12 13:01:26;;;;;;;4.22;1.63;;;31.70;71.20;;;;;;5011643;28;20286;-80
2022/08/12 13:03:53;;;;;;;6.00;1.73;;;31.70;70.40;;;;;;5011853;28;20175;-80
2022/08/12 13:06:24;;;;;;;18.92;2.13;;;31.60;70.80;;;;;;5013219;28;20179;-80
2022/08/12 13:08:53;;;;;;;26.83;2.35;;;31.50;70.20;;;;;;5011633;28;20270;-80
2022/08/12 13:11:20;;;;;;;11.68;1.50;;;31.50;68.90;;;;;;5011600;28;20199;-80
2022/08/12 13:13:48;;;;;;;4.18;1.45;;;31.50;68.70;;;;;;5011392;28;20172;-79
2022/08/12 13:16:19;;;;;;;8.35;2.00;;;31.60;69.10;;;;;;5013161;28;20253;-80
2022/08/12 13:18:46;;;;;;;8.02;1.85;;;31.70;69.60;;;;;;5011741;28;20218;-80
2022/08/12 13:21:16;;;;;;;2.78;1.65;;;31.70;69.60;;;;;;5012547;28;20187;-80
2022/08/12 13:23:44;;;;;;;7.35;1.50;;;31.80;68.50;;;;;;5013276;28;20183;-80
2022/08/12 13:26:11;;;;;;;3.90;1.52;;;31.70;68.10;;;;;;5012931;28;20170;-80
2022/08/12 13:28:37;;;;;;;8.63;2.20;;;31.70;68.10;;;;;;5012805;28;20223;-80
2022/08/12 13:31:03;;;;;;;9.27;1.70;;;31.90;68.50;;;;;;5011335;28;20191;-80
2022/08/12 13:33:29;;;;;;;4.25;1.50;;;31.90;68.30;;;;;;5012502;28;20237;-79
2022/08/12 13:35:59;;;;;;;3.90;1.50;;;32.00;68.10;;;;;;5012511;28;20651;-81
2022/08/12 13:38:39;;;;;;;16.48;1.75;;;32.10;68.60;;;;;;5012629;28;20156;-81
2022/08/12 13:41:06;;;;;;;6.97;1.70;;;32.10;68.10;;;;;;5013307;28;20752;-80
2022/08/12 13:43:32;;;;;;;3.15;1.58;;;32.10;68.30;;;;;;5013349;28;20565;-81
2022/08/12 13:45:58;;;;;;;2.42;1.60;;;32.10;68.30;;;;;;5013630;28;20165;-81
2022/08/12 13:48:24;;;;;;;5.32;1.40;;;32.00;68.90;;;;;;5011832;28;20633;-80
2022/08/12 13:50:51;;;;;;;6.30;1.83;;;32.00;69.40;;;;;;5014752;28;20242;-81
2022/08/12 13:53:17;;;;;;;2.55;1.70;;;32.10;69.10;;;;;;5016409;28;20247;-80
2022/08/12 13:55:48;;;;;;;5.30;1.48;;;32.00;68.50;;;;;;5016129;28;20218;-81
2022/08/12 13:58:16;;;;;;;7.45;1.83;;;31.80;69.60;;;;;;5016034;28;20168;-81
2022/08/12 14:00:49;;;;;;;4.57;1.52;;;31.90;69.70;;;;;;5015967;28;20187;-81
2022/08/12 14:03:17;;;;;;;9.65;2.15;;;32.00;68.80;;;;;;5015067;28;20203;-82
2022/08/12 14:05:43;;;;;;;3.10;1.60;;;31.90;69.20;;;;;;5014956;28;20275;-81
2022/08/12 14:08:12;;;;;;;4.68;1.80;;;31.90;70.20;;;;;;5016539;28;20172;-81
2022/08/12 14:10:42;;;;;;;7.40;1.45;;;31.90;69.90;;;;;;5014863;28;20208;-81
2022/08/12 14:13:09;;;;;;;9.25;1.80;;;32.00;69.20;;;;;;5016144;28;20171;-81
2022/08/12 14:15:39;;;;;;;13.10;1.50;;;32.00;68.20;;;;;;5016085;28;20168;-81
2022/08/12 14:18:09;;;;;;;3.60;1.65;;;32.00;68.40;;;;;;5016371;28;20242;-81
2022/08/12 14:20:35;;;;;;;3.47;1.90;;;32.10;68.40;;;;;;5015517;28;20191;-81
2022/08/12 14:23:01;;;;;;;5.45;1.83;;;32.00;68.80;;;;;;5015714;28;20225;-84
2022/08/12 14:25:27;;;;;;;9.07;1.92;;;32.10;68.60;;;;;;5015345;28;20255;-81
2022/08/12 14:27:54;;;;;;;8.52;2.10;;;31.90;67.50;;;;;;5014768;28;20253;-81
2022/08/12 14:30:20;;;;;;;2.25;1.40;;;31.80;68.00;;;;;;5015842;28;20215;-81
2022/08/12 14:32:46;;;;;;;2.75;2.03;;;31.80;68.30;;;;;;5014563;28;20172;-82